createdAt,value
2017-09-09T00:02:26.809Z,3.28
2017-09-09T00:04:55.166Z,2.50
2017-09-09T00:07:22.622Z,2.97
2017-09-09T00:09:50.049Z,2.80
2017-09-09T00:12:17.580Z,2.77
2017-09-09T00:14:45.038Z,2.75
2017-09-09T00:17:12.481Z,2.90
2017-09-09T00:19:39.935Z,2.90
2017-09-09T00:22:07.398Z,3.10
2017-09-09T00:24:34.856Z,2.83
2017-09-09T00:27:02.308Z,2.50
2017-09-09T00:29:29.768Z,2.62
2017-09-09T00:31:57.235Z,2.60
2017-09-09T00:34:24.688Z,2.53
2017-09-09T00:36:52.178Z,2.87
2017-09-09T00:39:19.928Z,2.17
2017-09-09T00:41:47.364Z,2.70
2017-09-09T00:44:14.822Z,2.40
2017-09-09T00:46:42.270Z,2.67
2017-09-09T00:49:09.734Z,2.55
2017-09-09T00:51:37.200Z,2.93
2017-09-09T00:54:04.633Z,2.83
2017-09-09T00:56:32.089Z,2.30
2017-09-09T00:58:59.545Z,2.20
2017-09-09T01:01:27.181Z,2.13
2017-09-09T01:03:54.815Z,2.90
2017-09-09T01:06:22.256Z,2.50
2017-09-09T01:08:49.711Z,2.53
2017-09-09T01:11:17.193Z,3.00
2017-09-09T01:13:44.628Z,2.50
2017-09-09T01:16:12.082Z,2.72
2017-09-09T01:18:39.505Z,2.60
2017-09-09T01:21:07.034Z,2.67
2017-09-09T01:23:34.461Z,2.15
2017-09-09T01:26:01.894Z,2.57
2017-09-09T01:28:29.825Z,2.50
2017-09-09T01:31:08.484Z,2.43
2017-09-09T01:43:15.925Z,2.73
2017-09-09T01:45:43.354Z,2.73
2017-09-09T01:48:11.826Z,2.30
2017-09-09T01:50:39.254Z,2.60
2017-09-09T01:53:06.711Z,2.53
2017-09-09T01:55:34.145Z,2.50
2017-09-09T01:58:01.595Z,2.63
2017-09-09T02:00:30.949Z,2.25
2017-09-09T02:03:09.476Z,1.93
2017-09-09T02:15:16.938Z,2.70
2017-09-09T02:17:44.384Z,2.87
2017-09-09T02:20:11.850Z,2.17
2017-09-09T02:22:39.303Z,3.03
2017-09-09T02:25:06.767Z,2.40
2017-09-09T02:27:34.200Z,2.00
2017-09-09T02:30:01.640Z,2.30
2017-09-09T02:32:29.103Z,2.40
2017-09-09T02:34:56.533Z,2.27
2017-09-09T02:37:24.015Z,2.70
2017-09-09T02:39:51.448Z,2.90
2017-09-09T02:42:18.885Z,2.30
2017-09-09T02:44:46.333Z,2.47
2017-09-09T02:47:13.790Z,2.43
2017-09-09T02:49:41.257Z,3.17
2017-09-09T02:52:08.716Z,2.70
2017-09-09T02:54:36.169Z,2.35
2017-09-09T02:57:03.609Z,2.50
2017-09-09T02:59:41.456Z,2.50
2017-09-09T03:10:28.907Z,2.67
2017-09-09T03:12:56.368Z,2.40
2017-09-09T03:15:23.808Z,2.60
2017-09-09T03:17:51.277Z,2.22
2017-09-09T03:20:18.716Z,2.63
2017-09-09T03:22:46.226Z,2.70
2017-09-09T03:25:13.952Z,2.50
2017-09-09T03:27:41.390Z,2.23
2017-09-09T03:30:08.847Z,2.70
2017-09-09T03:32:36.285Z,2.27
2017-09-09T03:35:03.741Z,2.50
2017-09-09T03:37:31.248Z,2.30
2017-09-09T03:39:58.713Z,2.33
2017-09-09T03:42:26.148Z,3.40
2017-09-09T03:44:53.594Z,2.50
2017-09-09T03:47:21.036Z,2.70
2017-09-09T03:49:48.486Z,2.50
2017-09-09T03:52:15.900Z,2.70
2017-09-09T03:54:43.357Z,2.80
2017-09-09T03:57:10.792Z,2.33
2017-09-09T03:59:38.279Z,2.80
2017-09-09T04:02:05.843Z,2.62
2017-09-09T04:04:33.329Z,3.30
2017-09-09T04:07:00.778Z,3.23
2017-09-09T04:09:28.212Z,2.63
2017-09-09T04:11:55.681Z,3.00
2017-09-09T04:14:23.113Z,3.07
2017-09-09T04:16:50.552Z,2.70
2017-09-09T04:19:18.028Z,2.87
2017-09-09T04:21:45.458Z,3.17
2017-09-09T04:24:12.913Z,3.10
2017-09-09T04:26:40.344Z,3.10
2017-09-09T04:29:07.801Z,3.10
2017-09-09T04:31:35.869Z,3.63
2017-09-09T04:34:03.635Z,3.30
2017-09-09T04:36:31.072Z,4.23
2017-09-09T04:38:58.526Z,4.00
2017-09-09T04:41:25.972Z,3.97
2017-09-09T04:43:53.429Z,3.90
2017-09-09T04:46:20.866Z,3.30
2017-09-09T04:48:48.309Z,3.95
2017-09-09T04:51:15.770Z,3.60
2017-09-09T04:53:43.191Z,3.43
2017-09-09T04:56:11.439Z,3.83
2017-09-09T04:58:38.865Z,3.97
2017-09-09T05:01:07.264Z,3.67
2017-09-09T05:03:34.729Z,3.40
2017-09-09T05:06:02.126Z,3.70
2017-09-09T05:08:29.579Z,4.03
2017-09-09T05:10:57.019Z,3.63
2017-09-09T05:13:24.465Z,3.67
2017-09-09T05:15:51.897Z,4.17
2017-09-09T05:18:19.350Z,3.37
2017-09-09T05:20:46.796Z,3.67
2017-09-09T05:23:14.249Z,3.42
2017-09-09T05:25:41.796Z,3.40
2017-09-09T05:28:09.234Z,3.60
2017-09-09T05:30:37.608Z,3.83
2017-09-09T05:33:05.809Z,4.13
2017-09-09T05:35:33.278Z,3.87
2017-09-09T05:38:00.719Z,4.00
2017-09-09T05:40:28.172Z,3.80
2017-09-09T05:42:55.640Z,4.43
2017-09-09T05:45:23.081Z,3.67
2017-09-09T05:47:50.533Z,3.50
2017-09-09T05:50:18.749Z,3.45
2017-09-09T05:52:46.198Z,4.00
2017-09-09T05:55:13.752Z,3.60
2017-09-09T05:57:41.241Z,3.78
2017-09-09T06:00:09.265Z,3.60
2017-09-09T06:02:36.699Z,4.00
2017-09-09T06:05:04.807Z,3.50
2017-09-09T06:07:32.249Z,3.80
2017-09-09T06:09:59.686Z,3.83
2017-09-09T06:12:27.236Z,3.47
2017-09-09T06:14:54.718Z,3.45
2017-09-09T06:17:22.336Z,3.53
2017-09-09T06:19:49.769Z,3.42
2017-09-09T06:22:17.386Z,3.63
2017-09-09T06:24:44.843Z,3.93
2017-09-09T06:27:12.311Z,3.42
2017-09-09T06:29:41.267Z,3.56
2017-09-09T06:32:08.725Z,3.60
2017-09-09T06:34:36.505Z,4.30
2017-09-09T06:37:03.935Z,4.00
2017-09-09T06:39:31.432Z,3.93
2017-09-09T06:41:58.882Z,3.10
2017-09-09T06:44:26.369Z,3.60
2017-09-09T06:46:53.815Z,3.50
2017-09-09T06:49:21.268Z,3.70
2017-09-09T06:51:48.723Z,3.87
2017-09-09T06:54:16.178Z,3.58
2017-09-09T06:56:43.645Z,3.47
2017-09-09T06:59:12.013Z,3.40
2017-09-09T07:01:39.464Z,3.90
2017-09-09T07:04:06.936Z,3.10
2017-09-09T07:06:34.381Z,4.00
2017-09-09T07:09:01.853Z,4.80
2017-09-09T07:11:29.298Z,3.92
2017-09-09T07:13:56.752Z,3.90
2017-09-09T07:16:24.219Z,3.90
2017-09-09T07:18:51.690Z,3.47
2017-09-09T07:21:19.142Z,4.10
2017-09-09T07:23:46.598Z,3.33
2017-09-09T07:26:14.177Z,3.90
2017-09-09T07:28:41.816Z,3.85
2017-09-09T07:31:09.283Z,3.97
2017-09-09T07:33:36.738Z,3.50
2017-09-09T07:36:04.182Z,3.50
2017-09-09T07:38:31.638Z,2.95
2017-09-09T07:40:59.097Z,3.30
2017-09-09T07:43:26.540Z,3.00
2017-09-09T07:45:54.025Z,3.00
2017-09-09T07:48:21.501Z,3.10
2017-09-09T07:50:48.947Z,3.40
2017-09-09T07:53:16.422Z,3.57
2017-09-09T07:55:46.194Z,3.53
2017-09-09T07:58:14.981Z,2.90
2017-09-09T08:00:43.704Z,3.08
2017-09-09T08:03:11.993Z,3.05
2017-09-09T08:05:39.440Z,3.10
2017-09-09T08:08:06.909Z,3.50
2017-09-09T08:10:34.386Z,3.40
2017-09-09T08:13:01.847Z,2.97
2017-09-09T08:15:30.034Z,5.33
2017-09-09T08:17:57.502Z,3.30
2017-09-09T08:20:24.940Z,2.93
2017-09-09T08:22:52.410Z,5.50
2017-09-09T08:25:19.854Z,3.12
2017-09-09T08:27:47.357Z,2.80
2017-09-09T08:30:16.366Z,2.80
2017-09-09T08:32:43.831Z,2.00
2017-09-09T08:35:11.311Z,2.00
2017-09-09T08:37:39.496Z,2.70
2017-09-09T08:40:07.248Z,2.30
2017-09-09T08:42:35.702Z,2.20
2017-09-09T08:45:03.181Z,1.70
2017-09-09T08:47:30.642Z,2.03
2017-09-09T08:49:58.080Z,1.67
2017-09-09T08:52:25.542Z,1.77
2017-09-09T08:54:53.038Z,1.42
2017-09-09T08:57:20.547Z,1.40
2017-09-09T08:59:47.974Z,1.50
2017-09-09T09:02:16.362Z,1.40
2017-09-09T09:04:43.793Z,1.67
2017-09-09T09:07:11.283Z,1.50
2017-09-09T09:09:38.955Z,1.30
2017-09-09T09:12:07.049Z,1.40
2017-09-09T09:14:34.521Z,1.48
2017-09-09T09:17:01.945Z,1.50
2017-09-09T09:19:29.404Z,1.52
2017-09-09T09:21:56.869Z,1.13
2017-09-09T09:24:24.293Z,1.27
2017-09-09T09:26:51.757Z,1.12
2017-09-09T09:29:19.223Z,1.25
2017-09-09T09:31:47.901Z,3.92
2017-09-09T09:34:15.341Z,2.90
2017-09-09T09:36:44.577Z,9.00
2017-09-09T09:39:12.130Z,3.60
2017-09-09T09:41:39.586Z,1.40
2017-09-09T09:44:07.076Z,1.17
2017-09-09T09:46:34.533Z,1.80
2017-09-09T09:49:02.000Z,1.60
2017-09-09T09:51:29.445Z,1.35
2017-09-09T09:53:57.232Z,2.05
2017-09-09T09:56:25.455Z,2.28
2017-09-09T09:58:52.904Z,2.35
2017-09-09T10:01:20.364Z,2.23
2017-09-09T10:03:49.050Z,2.35
2017-09-09T10:06:16.607Z,1.90
2017-09-09T10:08:44.048Z,2.10
2017-09-09T10:11:11.529Z,2.80
2017-09-09T10:13:39.913Z,3.13
2017-09-09T10:16:07.352Z,2.10
2017-09-09T10:18:34.815Z,1.77
2017-09-09T10:21:02.270Z,2.00
2017-09-09T10:23:29.714Z,2.67
2017-09-09T10:26:00.112Z,2.00
2017-09-09T10:28:27.582Z,2.30
2017-09-09T10:30:55.026Z,2.20
2017-09-09T10:33:22.508Z,2.50
2017-09-09T10:35:53.662Z,1.92
2017-09-09T10:38:21.180Z,2.00
2017-09-09T10:40:50.049Z,1.90
2017-09-09T10:43:17.523Z,1.80
2017-09-09T10:45:45.006Z,2.00
2017-09-09T10:48:12.467Z,2.40
2017-09-09T10:50:41.839Z,1.70
2017-09-09T10:53:11.998Z,1.90
2017-09-09T10:55:39.966Z,1.70
2017-09-09T10:58:07.440Z,1.77
2017-09-09T11:00:34.907Z,2.20
2017-09-09T11:03:02.607Z,2.20
2017-09-09T11:05:30.088Z,3.23
2017-09-09T11:07:57.543Z,2.30
2017-09-09T11:10:25.006Z,2.20
2017-09-09T11:12:52.640Z,3.07
2017-09-09T11:15:20.250Z,1.85
2017-09-09T11:17:47.696Z,2.33
2017-09-09T11:20:15.184Z,1.70
2017-09-09T11:22:42.706Z,2.23
2017-09-09T11:27:52.756Z,1.67
2017-09-09T11:30:22.438Z,1.98
2017-09-09T11:32:50.821Z,2.00
2017-09-09T11:35:18.316Z,1.40
2017-09-09T11:37:45.888Z,2.10
2017-09-09T11:40:13.537Z,1.97
2017-09-09T11:42:41.092Z,1.93
2017-09-09T11:45:08.545Z,2.12
2017-09-09T11:47:40.669Z,2.08
2017-09-09T11:50:08.151Z,2.10
2017-09-09T11:52:35.629Z,2.33
2017-09-09T11:55:03.134Z,1.97
2017-09-09T11:57:30.616Z,2.03
2017-09-09T11:59:59.001Z,2.00
2017-09-09T12:02:26.419Z,2.00
2017-09-09T12:04:53.873Z,1.98
2017-09-09T12:07:23.557Z,1.80
2017-09-09T12:09:51.915Z,2.00
2017-09-09T12:12:19.368Z,1.77
2017-09-09T12:14:46.833Z,1.90
2017-09-09T12:17:14.309Z,1.97
2017-09-09T12:19:41.792Z,2.90
2017-09-09T12:22:10.007Z,2.08
2017-09-09T12:24:37.455Z,2.20
2017-09-09T12:27:04.929Z,2.40
2017-09-09T12:29:32.393Z,2.40
2017-09-09T12:31:59.823Z,2.40
2017-09-09T12:34:27.318Z,2.20
2017-09-09T12:36:54.787Z,2.30
2017-09-09T12:39:23.815Z,2.80
2017-09-09T12:41:51.337Z,2.07
2017-09-09T12:44:18.824Z,1.83
2017-09-09T12:46:46.270Z,2.17
2017-09-09T12:49:13.725Z,2.70
2017-09-09T12:51:41.184Z,2.00
2017-09-09T12:54:08.974Z,2.40
2017-09-09T12:56:36.446Z,2.28
2017-09-09T12:59:04.151Z,1.98
2017-09-09T13:01:31.617Z,1.98
2017-09-09T13:03:59.085Z,1.90
2017-09-09T13:06:26.586Z,1.67
2017-09-09T13:08:54.920Z,1.90
2017-09-09T13:11:22.410Z,2.00
2017-09-09T13:13:49.876Z,1.50
2017-09-09T13:16:17.598Z,2.12
2017-09-09T13:18:45.104Z,2.00
2017-09-09T13:21:13.746Z,1.70
2017-09-09T13:23:41.227Z,2.05
2017-09-09T13:26:08.974Z,1.90
2017-09-09T13:28:36.413Z,1.83
2017-09-09T13:31:03.877Z,1.80
2017-09-09T13:33:31.630Z,2.00
2017-09-09T13:35:59.065Z,1.95
2017-09-09T13:38:26.502Z,1.90
2017-09-09T13:40:53.993Z,2.10
2017-09-09T13:43:21.456Z,2.05
2017-09-09T13:45:48.936Z,2.30
2017-09-09T13:48:16.708Z,1.70
2017-09-09T13:50:44.927Z,1.70
2017-09-09T13:53:12.430Z,2.17
2017-09-09T13:55:39.869Z,1.90
2017-09-09T13:58:08.528Z,1.80
2017-09-09T14:00:36.011Z,1.60
2017-09-09T14:03:03.441Z,1.95
2017-09-09T14:05:30.916Z,1.92
2017-09-09T14:07:58.355Z,2.50
2017-09-09T14:10:28.163Z,3.70
2017-09-09T14:12:57.130Z,2.15
2017-09-09T14:15:24.602Z,1.70
2017-09-09T14:17:54.023Z,2.50
2017-09-09T14:20:26.910Z,2.17
2017-09-09T14:23:03.040Z,2.17
2017-09-09T14:25:42.124Z,3.50
2017-09-09T14:28:11.072Z,2.30
2017-09-09T14:30:38.512Z,2.10
2017-09-09T14:33:06.033Z,2.05
2017-09-09T14:35:33.464Z,2.20
2017-09-09T14:38:00.902Z,2.13
2017-09-09T14:40:28.366Z,3.97
2017-09-09T14:42:56.039Z,2.17
2017-09-09T14:45:23.496Z,1.98
2017-09-09T14:47:51.018Z,2.22
2017-09-09T14:50:18.473Z,2.47
2017-09-09T14:52:45.940Z,1.93
2017-09-09T14:55:13.393Z,1.60
2017-09-09T14:57:40.949Z,1.90
2017-09-09T15:00:08.445Z,2.23
2017-09-09T15:02:35.888Z,1.90
2017-09-09T15:05:04.217Z,1.86
2017-09-09T15:07:31.710Z,1.97
2017-09-09T15:09:59.352Z,1.70
2017-09-09T15:12:26.800Z,1.73
2017-09-09T15:14:54.297Z,2.10
2017-09-09T15:17:22.041Z,2.20
2017-09-09T15:19:49.513Z,2.87
2017-09-09T15:22:16.950Z,2.05
2017-09-09T15:24:44.685Z,2.05
2017-09-09T15:27:12.138Z,1.90
2017-09-09T15:29:39.648Z,1.60
2017-09-09T15:32:07.125Z,1.90
2017-09-09T15:34:34.554Z,2.20
2017-09-09T15:37:02.019Z,2.12
2017-09-09T15:39:31.285Z,2.25
2017-09-09T15:42:00.445Z,2.03
2017-09-09T15:44:27.877Z,2.08
2017-09-09T15:46:55.398Z,2.10
2017-09-09T15:49:22.863Z,1.95
2017-09-09T15:51:50.303Z,2.20
2017-09-09T15:54:17.755Z,2.30
2017-09-09T15:56:46.901Z,1.97
2017-09-09T15:59:14.361Z,1.97
2017-09-09T16:01:41.815Z,1.80
2017-09-09T16:04:09.584Z,2.37
2017-09-09T16:06:37.044Z,2.47
2017-09-09T16:09:04.476Z,2.40
2017-09-09T16:11:31.929Z,2.25
2017-09-09T16:13:59.372Z,2.37
2017-09-09T16:16:26.873Z,2.57
2017-09-09T16:18:54.312Z,2.13
2017-09-09T16:21:21.786Z,2.07
2017-09-09T16:23:49.218Z,3.03
2017-09-09T16:26:17.409Z,1.95
2017-09-09T16:28:44.869Z,1.33
2017-09-09T16:31:12.297Z,1.70
2017-09-09T16:33:39.777Z,1.63
2017-09-09T16:36:07.233Z,2.75
2017-09-09T16:38:34.674Z,1.57
2017-09-09T16:41:02.933Z,2.95
2017-09-09T16:43:30.365Z,1.42
2017-09-09T16:45:57.822Z,2.10
2017-09-09T16:48:25.294Z,2.00
2017-09-09T16:50:52.759Z,1.40
2017-09-09T16:53:20.180Z,2.00
2017-09-09T16:55:48.378Z,1.38
2017-09-09T16:58:15.832Z,1.73
2017-09-09T17:00:43.310Z,1.95
2017-09-09T17:03:10.774Z,1.50
2017-09-09T17:05:38.329Z,1.83
2017-09-09T17:08:06.570Z,1.67
2017-09-09T17:10:34.355Z,1.60
2017-09-09T17:13:01.830Z,1.60
2017-09-09T17:15:29.252Z,1.83
2017-09-09T17:17:56.810Z,1.50
2017-09-09T17:20:24.259Z,1.80
2017-09-09T17:22:51.874Z,1.62
2017-09-09T17:25:19.328Z,1.60
2017-09-09T17:27:47.533Z,2.40
2017-09-09T17:30:15.014Z,2.10
2017-09-09T17:32:42.458Z,2.17
2017-09-09T17:35:09.916Z,2.50
2017-09-09T17:37:37.364Z,2.28
2017-09-09T17:40:06.613Z,1.77
2017-09-09T17:42:34.848Z,2.52
2017-09-09T17:45:02.317Z,1.60
2017-09-09T17:47:29.890Z,2.00
2017-09-09T17:49:57.325Z,2.00
2017-09-09T17:52:25.050Z,2.10
2017-09-09T17:54:52.494Z,2.43
2017-09-09T17:57:19.954Z,2.00
2017-09-09T17:59:47.531Z,1.98
2017-09-09T18:02:15.023Z,2.20
2017-09-09T18:04:42.472Z,2.10
2017-09-09T18:07:09.932Z,2.03
2017-09-09T18:09:37.402Z,2.40
2017-09-09T18:12:04.839Z,1.93
2017-09-09T18:14:32.304Z,2.07
2017-09-09T18:16:59.752Z,2.20
2017-09-09T18:19:27.230Z,2.27
2017-09-09T18:21:54.678Z,3.20
2017-09-09T18:24:22.117Z,1.77
2017-09-09T18:26:49.565Z,2.00
2017-09-09T18:29:17.014Z,3.12
2017-09-09T18:31:44.469Z,2.40
2017-09-09T18:34:11.935Z,2.47
2017-09-09T18:36:39.469Z,1.90
2017-09-09T18:39:08.049Z,1.90
2017-09-09T18:41:35.517Z,2.40
2017-09-09T18:44:02.956Z,2.60
2017-09-09T18:46:30.389Z,2.80
2017-09-09T18:48:57.833Z,2.05
2017-09-09T18:51:25.334Z,2.80
2017-09-09T18:53:52.786Z,2.03
2017-09-09T18:56:20.239Z,2.40
2017-09-09T18:58:47.731Z,2.50
2017-09-09T19:01:15.164Z,2.65
2017-09-09T19:03:42.651Z,2.63
2017-09-09T19:06:10.094Z,2.13
2017-09-09T19:08:39.648Z,2.35
2017-09-09T19:11:07.103Z,2.00
2017-09-09T19:13:34.544Z,3.27
2017-09-09T19:16:02.001Z,3.05
2017-09-09T19:18:29.458Z,2.87
2017-09-09T19:20:56.947Z,3.22
2017-09-09T19:23:24.384Z,3.42
2017-09-09T19:25:53.239Z,3.80
2017-09-09T19:28:20.665Z,2.80
2017-09-09T19:30:48.140Z,2.60
2017-09-09T19:33:15.585Z,2.87
2017-09-09T19:35:43.086Z,2.57
2017-09-09T19:38:11.655Z,2.72
2017-09-09T19:40:40.021Z,3.15
2017-09-09T19:43:07.498Z,2.40
2017-09-09T19:45:35.004Z,3.10
2017-09-09T19:48:02.455Z,3.40
2017-09-09T19:50:29.912Z,2.92
2017-09-09T19:52:57.440Z,2.65
2017-09-09T19:55:24.891Z,2.73
2017-09-09T19:57:52.545Z,3.40
2017-09-09T20:00:20.036Z,2.70
2017-09-09T20:02:47.507Z,3.77
2017-09-09T20:05:15.008Z,4.53
2017-09-09T20:07:42.547Z,2.73
2017-09-09T20:10:10.009Z,4.17
2017-09-09T20:12:37.481Z,2.97
2017-09-09T20:15:04.988Z,3.13
2017-09-09T20:17:32.509Z,2.93
2017-09-09T20:19:59.966Z,3.90
2017-09-09T20:22:27.463Z,3.30
2017-09-09T20:24:54.922Z,2.55
2017-09-09T20:27:22.355Z,3.12
2017-09-09T20:29:49.811Z,3.03
2017-09-09T20:32:17.435Z,3.10
2017-09-09T20:34:44.987Z,3.00
2017-09-09T20:37:13.717Z,2.94
2017-09-09T20:39:41.166Z,2.35
2017-09-09T20:42:08.636Z,2.72
2017-09-09T20:44:36.257Z,2.73
2017-09-09T20:47:03.684Z,2.37
2017-09-09T20:49:31.901Z,2.57
2017-09-09T20:51:59.363Z,2.47
2017-09-09T20:54:26.852Z,2.30
2017-09-09T20:56:55.240Z,2.70
2017-09-09T20:59:23.472Z,2.75
2017-09-09T21:01:51.050Z,2.28
2017-09-09T21:04:18.533Z,2.80
2017-09-09T21:06:45.961Z,1.73
2017-09-09T21:09:14.415Z,2.22
2017-09-09T21:11:41.886Z,2.33
2017-09-09T21:14:09.562Z,2.23
2017-09-09T21:16:37.026Z,2.77
2017-09-09T21:19:04.528Z,3.40
2017-09-09T21:21:31.949Z,2.83
2017-09-09T21:23:59.417Z,2.90
2017-09-09T21:26:26.871Z,2.70
2017-09-09T21:28:54.983Z,3.30
2017-09-09T21:31:22.446Z,2.47
2017-09-09T21:33:49.882Z,2.85
2017-09-09T21:36:18.118Z,5.43
2017-09-09T21:38:46.904Z,3.80
2017-09-09T21:41:16.480Z,2.80
2017-09-09T21:43:43.921Z,2.90
2017-09-09T21:46:11.369Z,2.97
2017-09-09T21:48:38.817Z,2.40
2017-09-09T21:51:06.258Z,2.63
2017-09-09T21:53:33.724Z,5.40
2017-09-09T21:56:01.190Z,3.25
2017-09-09T21:58:29.419Z,2.65
2017-09-09T22:00:57.442Z,3.13
2017-09-09T22:03:24.887Z,2.80
2017-09-09T22:05:52.336Z,2.27
2017-09-09T22:08:20.972Z,2.30
2017-09-09T22:10:48.412Z,2.27
2017-09-09T22:13:16.556Z,2.20
2017-09-09T22:15:44.793Z,2.37
2017-09-09T22:18:12.220Z,2.62
2017-09-09T22:20:40.446Z,2.00
2017-09-09T22:23:07.905Z,2.50
2017-09-09T22:25:35.351Z,2.92
2017-09-09T22:28:02.841Z,2.65
2017-09-09T22:30:30.319Z,2.83
2017-09-09T22:32:58.258Z,2.30
2017-09-09T22:35:25.721Z,2.28
2017-09-09T22:37:53.172Z,2.43
2017-09-09T22:40:20.909Z,2.67
2017-09-09T22:42:48.501Z,2.70
2017-09-09T22:45:15.948Z,2.45
2017-09-09T22:47:43.491Z,3.12
2017-09-09T22:50:10.961Z,2.60
2017-09-09T22:52:38.404Z,3.10
2017-09-09T22:55:05.845Z,2.87
2017-09-09T22:57:41.158Z,2.67
2017-09-09T23:00:12.998Z,2.67
2017-09-09T23:02:43.164Z,2.90
2017-09-09T23:05:10.878Z,2.60
2017-09-09T23:07:38.317Z,2.65
2017-09-09T23:10:05.866Z,2.33
2017-09-09T23:12:33.336Z,2.57
2017-09-09T23:15:00.818Z,2.30
2017-09-09T23:17:28.275Z,1.93
2017-09-09T23:19:55.923Z,2.35
2017-09-09T23:22:23.458Z,2.50
2017-09-09T23:24:50.901Z,2.10
2017-09-09T23:27:19.312Z,2.37
2017-09-09T23:29:46.771Z,2.40
2017-09-09T23:32:14.229Z,2.75
2017-09-09T23:34:41.703Z,2.53
2017-09-09T23:37:09.151Z,2.10
2017-09-09T23:39:36.592Z,2.70
2017-09-09T23:42:04.061Z,2.78
2017-09-09T23:44:31.521Z,2.22
2017-09-09T23:46:58.962Z,2.70
2017-09-09T23:49:26.421Z,2.08
2017-09-09T23:51:55.068Z,1.90
2017-09-09T23:54:22.525Z,2.00
2017-09-09T23:56:49.966Z,2.20
2017-09-09T23:59:17.400Z,2.37
